Time;durP1;ratioP1;P1;durP2;ratioP2;P2;SDS_P1;SDS_P2;PMS_P1;PMS_P2;Temp;Humidity;BMP_temperature;BMP_pressure;BME280_temperature;BME280_humidity;BME280_pressure;Samples;Min_cycle;Max_cycle;Signal;HPM_P1;HPM_P2
2021/05/13 05:00:54;;;;;;;12.73;11.70;;;;;;;17.81;71.03;93968.56;5971010;23;20052;-71
2021/05/13 05:03:20;;;;;;;10.10;9.40;;;;;;;20.24;63.02;93962.25;4887268;29;20414;-71
2021/05/13 05:05:45;;;;;;;10.32;9.52;;;;;;;19.43;65.05;93969.53;4896575;29;20493;-72
2021/05/13 05:08:10;;;;;;;10.70;10.00;;;;;;;18.63;68.41;93969.44;4902959;29;20466;-72
2021/05/13 05:10:36;;;;;;;10.43;9.73;;;;;;;19.30;66.41;93963.84;4894927;29;20036;-72
2021/05/13 05:13:01;;;;;;;11.18;10.48;;;;;;;18.82;68.15;93975.97;4877099;29;20518;-72
2021/05/13 05:15:27;;;;;;;10.80;9.95;;;;;;;16.59;76.73;93980.53;4879413;29;20097;-71
2021/05/13 05:17:52;;;;;;;12.30;11.38;;;;;;;15.52;80.38;93982.59;4892375;29;20039;-71
2021/05/13 05:20:18;;;;;;;12.27;11.48;;;;;;;15.39;81.75;93987.16;4879280;29;20032;-71
2021/05/13 05:22:43;;;;;;;12.13;11.30;;;;;;;15.50;81.26;93994.28;4893433;29;20043;-71
2021/05/13 05:25:09;;;;;;;13.23;12.27;;;;;;;15.04;82.36;93990.50;4878650;29;20039;-71
2021/05/13 05:27:35;;;;;;;17.75;16.30;;;;;;;15.16;81.89;93986.09;4911553;29;20060;-71
2021/05/13 05:30:00;;;;;;;12.35;11.25;;;;;;;16.77;76.68;93991.59;4877003;29;20024;-71
2021/05/13 05:32:26;;;;;;;14.05;12.95;;;;;;;16.02;80.13;93992.63;4879294;29;20028;-71
2021/05/13 05:34:51;;;;;;;15.85;14.27;;;;;;;16.04;79.02;93987.94;4877164;29;20075;-71
2021/05/13 05:37:17;;;;;;;15.32;14.13;;;;;;;15.69;79.32;93980.91;4878457;29;20478;-71
2021/05/13 05:39:42;;;;;;;15.68;14.30;;;;;;;15.87;79.32;93982.59;4877443;29;20032;-71
2021/05/13 05:42:08;;;;;;;16.25;14.82;;;;;;;16.48;78.10;93978.69;4910748;29;20043;-71
2021/05/13 05:44:33;;;;;;;16.48;15.02;;;;;;;18.73;69.04;93971.38;4893853;29;20522;-72
2021/05/13 05:46:59;;;;;;;16.23;15.02;;;;;;;16.65;76.91;93990.06;4892626;29;20036;-71
2021/05/13 05:49:24;;;;;;;17.00;15.60;;;;;;;18.01;71.07;93989.84;4879217;29;20036;-71
2021/05/13 05:51:49;;;;;;;13.57;12.35;;;;;;;23.74;54.93;93979.50;4892176;29;20043;-72
2021/05/13 05:54:15;;;;;;;13.73;12.60;;;;;;;24.57;51.16;93972.94;4863541;29;20489;-72
2021/05/13 05:56:40;;;;;;;14.02;13.13;;;;;;;25.07;49.65;93982.22;4876101;29;20064;-72
2021/05/13 05:59:07;;;;;;;15.10;13.82;;;;;;;24.29;48.54;93987.00;4894040;29;20032;-73
2021/05/13 06:01:34;;;;;;;13.75;12.75;;;;;;;25.76;46.70;93979.94;4892815;29;20051;-72
2021/05/13 06:04:00;;;;;;;13.95;12.85;;;;;;;22.96;54.09;93984.69;4893854;29;20098;-72
2021/05/13 06:06:26;;;;;;;15.00;14.00;;;;;;;23.38;52.51;93987.66;4893934;29;20032;-72
2021/05/13 06:08:51;;;;;;;16.90;15.50;;;;;;;19.88;62.78;93987.50;4876749;29;20099;-72
2021/05/13 06:11:17;;;;;;;22.92;20.60;;;;;;;16.58;72.12;93999.84;4911214;29;20035;-72
2021/05/13 06:13:42;;;;;;;21.35;19.30;;;;;;;17.03;72.77;93998.13;4876523;29;20079;-71
2021/05/13 06:16:08;;;;;;;24.65;21.85;;;;;;;16.91;75.15;94002.59;4893917;29;20032;-70
2021/05/13 06:18:48;;;;;;;22.67;20.67;;;;;;;16.47;76.59;94003.25;4909419;29;20035;-72
2021/05/13 06:21:13;;;;;;;21.73;19.60;;;;;;;15.92;77.51;94006.25;4877723;29;20078;-71
2021/05/13 06:23:39;;;;;;;24.77;22.88;;;;;;;16.06;79.12;94004.97;4911025;29;20028;-71
2021/05/13 06:26:04;;;;;;;24.92;22.73;;;;;;;15.92;79.17;94000.22;4908951;29;20031;-71
2021/05/13 06:28:29;;;;;;;24.27;22.25;;;;;;;15.66;79.84;94006.66;4894223;29;20267;-72
2021/05/13 06:30:55;;;;;;;24.25;22.15;;;;;;;16.29;77.88;94002.38;4875841;29;20087;-71
2021/05/13 06:33:20;;;;;;;28.20;25.80;;;;;;;16.44;76.61;93998.50;4910158;29;20024;-71
2021/05/13 06:35:46;;;;;;;28.67;26.05;;;;;;;16.16;76.47;93994.75;4876053;29;20032;-72
2021/05/13 06:38:11;;;;;;;27.38;25.15;;;;;;;16.43;76.44;93996.88;4878423;29;20040;-72
2021/05/13 06:40:37;;;;;;;25.75;23.55;;;;;;;16.20;76.94;93998.50;4893065;29;20029;-71
2021/05/13 06:43:03;;;;;;;28.00;25.30;;;;;;;16.77;75.54;93993.41;4877065;29;20493;-71
2021/05/13 06:45:37;;;;;;;27.13;24.73;;;;;;;16.94;72.95;93999.50;4910838;29;20052;-72
2021/05/13 06:48:03;;;;;;;23.00;21.20;;;;;;;21.01;61.96;93980.78;4878897;29;20039;-72
2021/05/13 06:50:47;;;;;;;22.98;20.77;;;;;;;22.93;55.51;93977.31;4896728;29;20020;-71
2021/05/13 06:53:12;;;;;;;24.48;22.63;;;;;;;25.05;49.36;93978.25;4896510;29;20167;-72
2021/05/13 06:55:37;;;;;;;20.83;19.20;;;;;;;27.72;43.08;93965.63;4880719;29;20421;-72
2021/05/13 06:58:03;;;;;;;19.52;18.08;;;;;;;26.51;46.41;93976.06;4880704;29;20028;-71
2021/05/13 07:00:29;;;;;;;19.00;17.67;;;;;;;22.92;55.24;93968.63;4895992;29;20051;-72
2021/05/13 07:02:54;;;;;;;19.70;18.30;;;;;;;19.77;61.18;93970.09;4892910;29;20040;-72
2021/05/13 07:05:20;;;;;;;19.77;18.27;;;;;;;20.12;61.72;93959.03;4889438;29;20028;-72
2021/05/13 07:07:45;;;;;;;14.63;13.63;;;;;;;20.47;57.46;93969.78;4879534;29;20036;-72
2021/05/13 07:10:11;;;;;;;19.08;17.55;;;;;;;19.92;62.91;93969.41;4895235;29;20401;-71
2021/05/13 07:12:37;;;;;;;17.42;16.15;;;;;;;20.75;60.73;93968.56;4896941;29;20028;-71
2021/05/13 07:15:03;;;;;;;17.45;16.23;;;;;;;21.60;59.29;93963.78;4896327;29;20502;-71
2021/05/13 07:17:29;;;;;;;17.42;16.00;;;;;;;21.59;58.31;93972.75;4896465;29;20125;-71
2021/05/13 07:19:54;;;;;;;15.65;14.35;;;;;;;21.39;58.75;93971.66;4897204;29;20409;-72
2021/05/13 07:22:20;;;;;;;14.55;13.43;;;;;;;21.44;59.07;93976.97;4878988;29;20075;-71
2021/05/13 07:24:48;;;;;;;14.32;13.32;;;;;;;20.99;62.16;93972.34;4881706;29;20108;-72
2021/05/13 07:27:13;;;;;;;15.70;14.60;;;;;;;19.32;64.60;93965.22;4894878;29;20421;-71
2021/05/13 07:29:39;;;;;;;17.00;15.48;;;;;;;18.79;62.43;93967.78;4913840;29;20025;-71
2021/05/13 07:32:04;;;;;;;18.67;17.05;;;;;;;20.00;63.60;93966.31;4862983;29;20483;-71
2021/05/13 07:34:30;;;;;;;16.17;14.90;;;;;;;21.16;62.34;93969.50;4880361;29;20044;-72
2021/05/13 07:36:55;;;;;;;24.65;14.50;;;;;;;19.66;61.97;93957.09;4895568;29;20108;-71
2021/05/13 07:39:21;;;;;;;13.95;12.85;;;;;;;20.09;64.54;93958.72;4895397;29;20024;-71
2021/05/13 07:41:47;;;;;;;18.17;16.58;;;;;;;18.99;63.34;93956.72;4880855;29;20055;-71
2021/05/13 07:44:12;;;;;;;16.95;15.55;;;;;;;19.56;63.98;93952.56;4911686;29;20485;-71
2021/05/13 07:46:41;;;;;;;19.13;17.40;;;;;;;20.16;59.75;93949.59;4913632;29;20056;-71
2021/05/13 07:49:07;;;;;;;16.33;15.05;;;;;;;19.50;62.92;93950.94;4894454;29;20036;-71
2021/05/13 07:51:33;;;;;;;15.10;14.00;;;;;;;21.22;59.53;93944.78;4913228;29;20036;-72
2021/05/13 07:53:58;;;;;;;13.57;12.57;;;;;;;20.80;58.56;93946.75;4895265;29;20449;-71
2021/05/13 07:56:24;;;;;;;12.45;11.38;;;;;;;21.87;55.69;93943.19;4878963;29;20028;-72
2021/05/13 07:58:49;;;;;;;10.75;9.65;;;;;;;22.27;53.44;93942.41;4880711;29;20032;-72
2021/05/13 08:01:15;;;;;;;9.80;9.00;;;;;;;21.84;54.37;93946.38;4893818;29;20048;-71
2021/05/13 08:03:40;;;;;;;10.20;9.45;;;;;;;21.35;54.53;93943.47;4880772;29;20028;-72
2021/05/13 08:06:06;;;;;;;11.25;10.35;;;;;;;22.00;54.00;93940.06;4878600;29;20047;-72
2021/05/13 08:08:31;;;;;;;13.30;12.30;;;;;;;21.60;55.79;93938.22;4880475;29;20036;-71
2021/05/13 08:10:57;;;;;;;15.10;13.80;;;;;;;21.66;56.00;93941.66;4894218;29;20035;-72
2021/05/13 08:13:23;;;;;;;16.13;14.93;;;;;;;21.67;57.27;93941.41;4880406;29;20038;-72
2021/05/13 08:15:48;;;;;;;17.25;15.75;;;;;;;20.28;57.30;93949.41;4880013;29;20024;-72
2021/05/13 08:18:14;;;;;;;16.83;15.52;;;;;;;21.36;57.62;93947.69;4879298;29;20028;-72
2021/05/13 08:20:39;;;;;;;13.70;12.50;;;;;;;21.32;57.17;93938.75;4896001;29;20047;-72
2021/05/13 08:23:06;;;;;;;15.70;14.18;;;;;;;21.70;58.23;93948.78;4878500;29;20032;-72
2021/05/13 08:25:32;;;;;;;16.80;15.20;;;;;;;20.61;57.97;93943.78;4912487;29;20024;-71
2021/05/13 08:27:57;;;;;;;13.60;12.43;;;;;;;21.02;59.92;93937.59;4904925;29;20107;-72
2021/05/13 08:30:23;;;;;;;16.65;15.02;;;;;;;18.56;62.55;93937.34;4890176;29;20033;-71
2021/05/13 08:32:48;;;;;;;12.43;11.43;;;;;;;19.67;60.75;93927.16;4894353;29;20031;-70
2021/05/13 08:35:14;;;;;;;11.60;10.50;;;;;;;20.19;57.89;93929.88;4879498;29;20035;-70
2021/05/13 08:37:40;;;;;;;32.35;9.82;;;;;;;19.72;57.52;93929.81;4912319;29;20489;-71
2021/05/13 08:40:06;;;;;;;10.02;8.95;;;;;;;19.81;58.94;93936.22;4893817;29;20036;-72
2021/05/13 08:42:33;;;;;;;8.40;7.63;;;;;;;20.09;56.80;93925.34;4894475;29;20032;-71
2021/05/13 08:44:58;;;;;;;11.20;8.60;;;;;;;21.56;56.88;93923.97;4893737;29;20450;-72
2021/05/13 08:47:24;;;;;;;9.20;8.25;;;;;;;20.59;54.29;93919.56;4879931;29;20036;-72
2021/05/13 08:49:49;;;;;;;9.88;8.98;;;;;;;18.63;58.67;93919.59;4878211;29;20056;-72
2021/05/13 08:52:19;;;;;;;8.30;7.47;;;;;;;20.26;59.87;93912.03;4879727;29;20028;-71
2021/05/13 08:54:54;;;;;;;8.98;8.10;;;;;;;21.72;53.59;93903.69;4895226;29;20505;-72
2021/05/13 08:57:20;;;;;;;7.55;6.97;;;;;;;21.57;55.94;93906.31;4877674;29;20028;-72
2021/05/13 08:59:46;;;;;;;11.10;7.80;;;;;;;21.55;52.29;93903.94;4895409;29;20024;-72
2021/05/13 09:02:11;;;;;;;8.63;7.85;;;;;;;20.37;52.67;93892.63;4892910;29;20044;-72
2021/05/13 09:04:41;;;;;;;7.38;6.68;;;;;;;20.08;56.60;93886.94;4879389;29;20494;-72
2021/05/13 09:07:13;;;;;;;7.65;6.93;;;;;;;20.52;52.55;93882.94;4894028;29;20036;-71
2021/05/13 09:09:39;;;;;;;8.60;7.88;;;;;;;19.88;56.34;93886.81;4879149;29;20028;-72
2021/05/13 09:12:05;;;;;;;7.30;6.57;;;;;;;21.44;55.25;93887.38;4878751;29;20426;-72
2021/05/13 09:14:32;;;;;;;10.32;9.43;;;;;;;19.36;56.93;93895.38;4893076;29;20043;-72
2021/05/13 09:16:58;;;;;;;9.82;8.90;;;;;;;19.97;54.54;93898.47;4879614;29;20462;-72
2021/05/13 09:19:24;;;;;;;10.75;9.65;;;;;;;20.54;54.57;93890.59;4892908;29;20036;-72
2021/05/13 09:22:04;;;;;;;10.57;7.82;;;;;;;21.35;53.14;93888.16;4878974;29;20028;-72
2021/05/13 09:24:49;;;;;;;10.50;8.80;;;;;;;20.45;54.94;93887.66;4910222;29;20032;-72
2021/05/13 09:27:19;;;;;;;8.32;7.65;;;;;;;20.58;54.72;93886.38;4910660;29;20094;-73
2021/05/13 09:29:44;;;;;;;;;;;;;;;21.41;54.37;93884.47;4912187;29;20059;-72
2021/05/13 09:32:17;;;;;;;7.68;7.07;;;;;;;21.51;52.77;93879.19;4892390;29;20122;-72
2021/05/13 09:34:43;;;;;;;7.75;7.00;;;;;;;22.30;50.09;93863.50;4891559;29;20037;-72
2021/05/13 09:37:09;;;;;;;9.15;5.88;;;;;;;21.78;50.83;93865.69;4890925;29;20586;-71
2021/05/13 09:39:34;;;;;;;7.05;6.35;;;;;;;21.95;50.16;93867.03;4893387;29;20020;-71
2021/05/13 09:42:01;;;;;;;7.63;5.30;;;;;;;22.49;50.90;93864.47;4875975;29;20083;-72
2021/05/13 09:44:37;;;;;;;6.15;5.55;;;;;;;21.79;48.61;93868.09;4893048;29;20039;-72
2021/05/13 09:47:15;;;;;;;7.53;6.82;;;;;;;20.91;48.29;93861.47;4862905;29;20032;-72
2021/05/13 09:49:52;;;;;;;7.03;6.28;;;;;;;21.14;50.99;93860.19;4912581;29;20039;-72
2021/05/13 09:52:41;;;;;;;6.55;6.05;;;;;;;20.74;49.99;93853.03;4909791;29;20107;-71
2021/05/13 09:55:11;;;;;;;7.00;6.30;;;;;;;21.75;51.98;93853.84;4908309;29;20040;-71
2021/05/13 09:57:37;;;;;;;6.90;6.13;;;;;;;21.62;47.92;93840.41;4909431;29;20103;-71
2021/05/13 10:00:07;;;;;;;6.38;5.78;;;;;;;22.81;48.72;93842.94;4894727;29;20545;-72
2021/05/13 10:02:34;;;;;;;7.35;5.68;;;;;;;22.49;48.32;93845.97;4876998;29;20052;-73
2021/05/13 10:04:59;;;;;;;5.85;5.22;;;;;;;21.16;49.37;93845.72;4878943;29;20028;-72
2021/05/13 10:07:26;;;;;;;8.05;5.60;;;;;;;22.38;45.78;93846.31;4876334;29;20039;-72
2021/05/13 10:09:52;;;;;;;5.53;5.03;;;;;;;22.86;48.91;93842.13;4879137;29;20028;-72
2021/05/13 10:12:17;;;;;;;5.43;4.28;;;;;;;21.63;46.08;93834.09;4910209;29;20028;-74
2021/05/13 10:14:43;;;;;;;5.70;4.22;;;;;;;23.03;46.80;93834.59;4877754;29;20717;-73
2021/05/13 10:17:10;;;;;;;6.05;4.75;;;;;;;22.41;45.90;93838.63;4863234;29;20047;-73
2021/05/13 10:19:42;;;;;;;5.63;5.10;;;;;;;21.82;47.77;93840.38;4876678;29;20024;-73
2021/05/13 10:22:08;;;;;;;7.95;5.70;;;;;;;20.92;50.37;93842.78;4879307;29;20028;-72
2021/05/13 10:24:34;;;;;;;6.53;5.22;;;;;;;21.61;48.62;93838.84;4880944;29;20072;-72
2021/05/13 10:26:59;;;;;;;4.80;3.50;;;;;;;22.25;44.88;93833.69;4882359;29;20028;-72
2021/05/13 10:29:26;;;;;;;6.53;3.00;;;;;;;22.85;43.52;93824.69;4880008;29;20039;-73
2021/05/13 10:32:00;;;;;;;4.07;3.65;;;;;;;21.89;45.29;93825.13;4913126;29;20056;-73
2021/05/13 10:34:41;;;;;;;4.00;3.10;;;;;;;22.52;46.31;93819.03;4914970;29;20024;-73
2021/05/13 10:37:11;;;;;;;3.42;3.13;;;;;;;22.74;43.71;93816.03;4912192;29;20036;-73
2021/05/13 10:39:36;;;;;;;4.00;3.25;;;;;;;22.52;45.21;93816.41;4896758;29;20123;-73
2021/05/13 10:42:31;;;;;;;6.10;3.80;;;;;;;21.58;47.21;93819.06;4878760;29;20485;-74
2021/05/13 10:44:57;;;;;;;5.97;4.93;;;;;;;21.80;46.93;93814.28;4886720;29;20127;-73
2021/05/13 10:47:27;;;;;;;7.03;5.05;;;;;;;21.86;46.55;93805.31;4881531;29;20028;-73
2021/05/13 10:49:52;;;;;;;6.95;4.45;;;;;;;22.01;46.13;93807.94;4894697;29;20482;-73
2021/05/13 10:52:41;;;;;;;8.02;4.47;;;;;;;21.75;46.80;93797.69;4881080;29;20020;-73
2021/05/13 10:55:08;;;;;;;5.72;5.07;;;;;;;21.73;48.69;93805.88;4878027;29;20210;-73
2021/05/13 10:57:50;;;;;;;8.35;4.65;;;;;;;21.09;47.59;93815.41;4897336;29;20036;-73
2021/05/13 11:00:16;;;;;;;5.25;4.35;;;;;;;21.37;46.46;93805.16;4898223;29;20084;-71
2021/05/13 11:02:48;;;;;;;6.28;4.82;;;;;;;21.97;47.94;93787.63;4912213;29;20048;-73
2021/05/13 11:05:44;;;;;;;6.28;5.25;;;;;;;22.84;44.29;93800.13;4882072;29;20048;-73
2021/05/13 11:08:10;;;;;;;6.75;4.03;;;;;;;23.16;47.04;93804.13;4895238;29;20040;-72
2021/05/13 11:10:47;;;;;;;4.93;4.40;;;;;;;23.28;49.68;93800.03;4913956;29;20179;-74
2021/05/13 11:13:13;;;;;;;4.50;3.88;;;;;;;23.58;46.24;93807.75;4914128;29;20035;-73
2021/05/13 11:15:39;;;;;;;4.75;4.35;;;;;;;23.21;45.37;93796.16;4895125;29;20051;-75
2021/05/13 11:18:06;;;;;;;5.07;4.25;;;;;;;22.30;44.25;93802.00;4896781;29;20039;-73
2021/05/13 11:20:44;;;;;;;5.85;3.90;;;;;;;23.06;46.00;93803.13;4895307;29;20526;-74
2021/05/13 11:23:10;;;;;;;4.47;3.83;;;;;;;22.57;45.11;93797.13;4914077;29;20417;-74
2021/05/13 11:25:40;;;;;;;5.47;4.07;;;;;;;21.38;46.37;93793.53;4895886;29;20110;-73
2021/05/13 11:28:24;;;;;;;4.05;3.75;;;;;;;21.78;46.30;93783.97;4913089;29;20036;-73
2021/05/13 11:30:51;;;;;;;5.30;3.38;;;;;;;21.59;47.46;93777.69;4913766;29;20131;-74
2021/05/13 11:33:17;;;;;;;5.15;3.60;;;;;;;22.54;45.70;93779.94;4879138;29;20028;-74
2021/05/13 11:35:42;;;;;;;5.70;3.33;;;;;;;22.55;43.27;93786.81;4880939;29;20038;-74
2021/05/13 11:38:14;;;;;;;4.07;3.65;;;;;;;21.96;44.04;93786.06;4879098;29;20111;-74
2021/05/13 11:40:40;;;;;;;5.68;3.42;;;;;;;22.02;46.10;93783.13;4896519;29;20090;-73
2021/05/13 11:43:26;;;;;;;5.97;3.45;;;;;;;21.84;46.05;93774.97;4895991;29;20048;-74
2021/05/13 11:45:55;;;;;;;4.30;3.05;;;;;;;21.67;46.11;93770.03;4879263;29;20111;-74
2021/05/13 11:48:31;;;;;;;4.03;3.10;;;;;;;21.60;45.74;93768.75;4881070;29;20443;-73
2021/05/13 11:51:01;;;;;;;3.60;3.30;;;;;;;21.31;45.11;93771.16;4894406;29;20063;-73
2021/05/13 11:53:27;;;;;;;3.55;3.05;;;;;;;21.41;46.25;93784.34;4897235;29;20582;-73
2021/05/13 11:55:52;;;;;;;4.93;3.13;;;;;;;21.33;45.62;93782.22;4877509;29;20031;-73
2021/05/13 11:58:45;;;;;;;12.27;3.30;;;;;;;21.30;45.00;93786.19;4894292;29;20485;-72
2021/05/13 12:01:20;;;;;;;3.03;2.60;;;;;;;21.84;44.72;93783.69;4910376;29;20927;-73
2021/05/13 12:03:47;;;;;;;3.70;2.65;;;;;;;22.11;43.99;93780.72;4893421;29;20798;-73
2021/05/13 12:06:12;;;;;;;4.50;3.10;;;;;;;21.84;43.63;93772.34;4879524;29;20462;-73
2021/05/13 12:08:38;;;;;;;3.97;2.53;;;;;;;22.65;46.39;93770.13;4878639;29;20032;-73
2021/05/13 12:11:26;;;;;;;2.60;2.40;;;;;;;22.30;41.36;93770.34;4894590;29;20029;-73
2021/05/13 12:13:52;;;;;;;3.25;2.95;;;;;;;23.14;42.95;93767.41;4895030;29;20047;-73
2021/05/13 12:16:19;;;;;;;3.58;2.42;;;;;;;22.90;41.57;93758.63;4893390;29;20032;-74
2021/05/13 12:18:46;;;;;;;2.63;2.28;;;;;;;22.76;42.40;93757.69;4879791;29;20024;-73
2021/05/13 12:21:12;;;;;;;2.92;2.28;;;;;;;21.93;44.05;93763.63;4877714;29;20040;-74
2021/05/13 12:23:39;;;;;;;3.13;2.45;;;;;;;21.55;44.46;93762.41;4896316;29;20056;-72
2021/05/13 12:26:04;;;;;;;8.45;2.83;;;;;;;21.41;45.94;93764.03;4879252;29;20079;-75
2021/05/13 12:28:30;;;;;;;2.55;2.33;;;;;;;21.37;46.33;93757.72;4879558;29;20069;-75
2021/05/13 12:30:56;;;;;;;3.90;2.33;;;;;;;21.32;45.28;93760.34;4879833;29;20103;-75
2021/05/13 12:33:28;;;;;;;3.95;2.10;;;;;;;21.04;45.38;93760.88;4877536;29;20040;-75
2021/05/13 12:35:53;;;;;;;4.28;2.30;;;;;;;21.46;45.57;93764.03;4896038;29;20146;-75
2021/05/13 12:38:22;;;;;;;3.17;2.08;;;;;;;21.53;46.85;93766.38;4893502;29;20056;-76
2021/05/13 12:40:49;;;;;;;6.13;2.63;;;;;;;21.48;46.51;93769.03;4880354;29;20414;-76
2021/05/13 12:43:16;;;;;;;5.70;2.25;;;;;;;20.82;47.37;93791.94;4894040;29;20024;-76
2021/05/13 12:45:42;;;;;;;4.07;2.97;;;;;;;20.95;47.47;93780.91;4893754;29;20048;-76
2021/05/13 12:48:08;;;;;;;3.28;2.50;;;;;;;20.85;47.63;93780.91;4894164;29;20513;-76
2021/05/13 12:50:33;;;;;;;2.25;2.05;;;;;;;20.89;44.74;93780.13;4893660;29;20020;-76
2021/05/13 12:53:15;;;;;;;2.40;2.20;;;;;;;21.26;45.26;93771.94;4895883;29;20028;-77
2021/05/13 12:55:42;;;;;;;3.78;2.30;;;;;;;21.53;44.98;93763.75;4893078;29;20475;-77
2021/05/13 12:58:14;;;;;;;7.85;2.55;;;;;;;22.49;44.89;93772.06;4895785;29;20526;-76
2021/05/13 13:00:40;;;;;;;6.05;2.45;;;;;;;21.78;47.04;93776.84;4878379;29;20122;-76
2021/05/13 13:03:07;;;;;;;2.30;1.95;;;;;;;20.95;50.72;93771.16;4894461;29;20123;-75
2021/05/13 13:05:32;;;;;;;2.38;2.10;;;;;;;21.26;47.44;93774.59;4879493;29;20087;-75
2021/05/13 13:07:58;;;;;;;2.92;1.90;;;;;;;21.27;47.84;93768.28;4910068;29;20458;-75
2021/05/13 13:10:46;;;;;;;2.60;2.30;;;;;;;20.80;47.83;93762.47;4879678;29;20056;-75
2021/05/13 13:13:18;;;;;;;3.20;1.98;;;;;;;21.08;48.04;93761.94;4879789;29;20031;-76
2021/05/13 13:15:48;;;;;;;2.10;1.90;;;;;;;21.26;46.33;93755.34;4880060;29;20024;-75
2021/05/13 13:18:15;;;;;;;3.00;2.00;;;;;;;21.45;47.31;93743.19;4879324;29;20039;-76
2021/05/13 13:20:40;;;;;;;3.45;2.05;;;;;;;21.85;43.84;93740.44;4878183;29;20028;-76
2021/05/13 13:23:16;;;;;;;2.20;2.00;;;;;;;22.04;43.34;93738.00;4895317;29;20039;-77
2021/05/13 13:25:42;;;;;;;3.83;1.67;;;;;;;21.75;41.90;93729.13;4876941;29;20034;-76
2021/05/13 13:28:08;;;;;;;1.90;1.80;;;;;;;21.92;43.67;93737.53;4879919;29;20395;-76
2021/05/13 13:30:33;;;;;;;5.35;1.83;;;;;;;21.62;44.10;93738.41;4876799;29;20107;-75
2021/05/13 13:33:00;;;;;;;2.25;1.60;;;;;;;21.43;43.61;93732.16;4894726;29;20513;-77
2021/05/13 13:35:27;;;;;;;4.32;1.77;;;;;;;21.39;43.81;93729.25;4878463;29;20425;-78
2021/05/13 13:37:52;;;;;;;1.95;1.60;;;;;;;21.44;44.93;93739.00;4893738;29;20505;-76
2021/05/13 13:40:18;;;;;;;5.20;1.75;;;;;;;21.48;44.36;93732.16;4879408;29;20032;-76
2021/05/13 13:42:43;;;;;;;2.20;1.90;;;;;;;21.42;46.92;93726.06;4909272;29;20032;-73
2021/05/13 13:45:09;;;;;;;3.92;1.88;;;;;;;21.56;43.87;93726.31;4879011;29;20031;-73
2021/05/13 13:47:35;;;;;;;3.85;2.17;;;;;;;22.04;44.55;93717.72;4876620;29;20063;-74
2021/05/13 13:50:00;;;;;;;2.53;1.80;;;;;;;21.90;42.54;93716.72;4879148;29;20509;-74
2021/05/13 13:52:26;;;;;;;4.20;1.85;;;;;;;22.39;41.28;93719.34;4876808;29;20095;-72
2021/05/13 13:54:51;;;;;;;3.88;1.73;;;;;;;22.03;43.24;93710.06;4892014;29;20529;-73
2021/05/13 13:57:17;;;;;;;3.05;1.60;;;;;;;22.02;42.73;93713.78;4908436;29;20046;-72
2021/05/13 13:59:43;;;;;;;2.85;1.95;;;;;;;21.63;44.89;93720.75;4874785;29;20028;-73
2021/05/13 14:02:08;;;;;;;1.90;1.70;;;;;;;21.31;45.34;93721.13;4893555;29;20044;-71
2021/05/13 14:04:34;;;;;;;3.95;1.70;;;;;;;20.96;43.97;93729.84;4891002;29;20032;-72
2021/05/13 14:06:59;;;;;;;2.65;1.63;;;;;;;21.07;43.47;93728.75;4894273;29;20042;-72
2021/05/13 14:09:25;;;;;;;2.65;1.30;;;;;;;21.19;43.10;93737.19;4892455;29;20099;-74
2021/05/13 14:11:50;;;;;;;4.47;1.10;;;;;;;21.37;43.08;93728.75;4892314;29;20449;-74
2021/05/13 14:14:16;;;;;;;4.30;1.25;;;;;;;21.12;43.78;93735.91;4891529;29;20028;-74
2021/05/13 14:16:41;;;;;;;3.80;1.25;;;;;;;20.95;42.95;93721.13;4876488;29;20035;-71
2021/05/13 14:19:08;;;;;;;3.72;1.35;;;;;;;20.95;43.62;93725.59;4878259;29;20070;-73
2021/05/13 14:21:33;;;;;;;1.50;1.10;;;;;;;20.86;43.78;93717.47;4891521;29;20478;-71
2021/05/13 14:23:59;;;;;;;1.60;1.00;;;;;;;20.76;42.98;93722.72;4878904;29;20024;-71
2021/05/13 14:26:24;;;;;;;1.75;1.23;;;;;;;20.71;45.24;93727.22;4891411;29;20024;-71
2021/05/13 14:28:50;;;;;;;3.17;1.20;;;;;;;20.76;45.32;93733.25;4893245;29;20032;-73
2021/05/13 14:31:15;;;;;;;1.30;1.20;;;;;;;20.67;45.83;93739.31;4877014;29;20478;-72
2021/05/13 14:33:41;;;;;;;1.83;1.17;;;;;;;20.63;46.58;93736.41;4893707;29;20103;-73
2021/05/13 14:36:06;;;;;;;3.45;1.55;;;;;;;20.79;46.51;93730.09;4893319;29;20099;-74
2021/05/13 14:38:31;;;;;;;1.88;1.00;;;;;;;20.80;46.05;93728.25;4876838;29;20032;-73
2021/05/13 14:40:57;;;;;;;1.33;1.08;;;;;;;20.70;43.96;93713.25;4878696;29;20033;-73
2021/05/13 14:43:23;;;;;;;1.23;1.00;;;;;;;20.88;45.34;93720.59;4891867;29;20036;-74
2021/05/13 14:45:48;;;;;;;1.75;0.90;;;;;;;20.91;44.41;93727.19;4878277;29;20299;-71
2021/05/13 14:48:17;;;;;;;2.60;1.10;;;;;;;20.67;43.13;93729.56;4891778;29;20036;-72
2021/05/13 14:50:42;;;;;;;1.67;0.77;;;;;;;20.62;44.69;93734.03;4894449;29;20036;-74
2021/05/13 14:53:08;;;;;;;1.98;1.08;;;;;;;20.49;44.65;93736.13;4893416;29;20485;-72
2021/05/13 14:55:34;;;;;;;1.40;0.80;;;;;;;20.50;41.60;93724.56;4877449;29;20422;-72
2021/05/13 14:57:59;;;;;;;2.60;0.80;;;;;;;20.41;43.13;93741.91;4878071;29;20138;-70
2021/05/13 15:00:25;;;;;;;1.77;1.10;;;;;;;20.40;43.38;93750.06;4891750;29;20100;-73
2021/05/13 15:02:51;;;;;;;4.03;1.38;;;;;;;20.28;43.23;93757.41;4893602;29;20124;-72
2021/05/13 15:05:17;;;;;;;9.70;1.05;;;;;;;19.80;48.78;93793.50;4892219;29;20036;-75
2021/05/13 15:07:42;;;;;;;6.95;0.98;;;;;;;19.04;52.90;93794.03;4893451;29;20409;-72
2021/05/13 15:10:08;;;;;;;1.60;0.95;;;;;;;18.83;55.56;93791.25;4894220;29;20092;-71
2021/05/13 15:12:34;;;;;;;9.70;1.23;;;;;;;18.63;58.24;93792.91;4881273;29;20032;-71
2021/05/13 15:14:59;;;;;;;1.67;1.33;;;;;;;18.57;57.92;93791.25;4881213;29;20031;-73
2021/05/13 15:17:25;;;;;;;1.35;0.93;;;;;;;18.51;58.04;93781.78;4879974;29;20039;-71
2021/05/13 15:19:52;;;;;;;3.05;1.17;;;;;;;18.73;57.44;93793.00;4897031;29;20067;-70
2021/05/13 15:22:18;;;;;;;1.58;1.00;;;;;;;18.39;58.48;93782.69;4912216;29;20032;-70
2021/05/13 15:24:43;;;;;;;2.92;0.90;;;;;;;18.69;58.02;93771.72;4897099;29;20110;-73
2021/05/13 15:27:09;;;;;;;1.75;1.08;;;;;;;19.06;56.95;93786.69;4879149;29;20039;-71
2021/05/13 15:29:34;;;;;;;3.90;1.05;;;;;;;18.74;57.51;93789.34;4897106;29;20518;-72
2021/05/13 15:32:01;;;;;;;2.50;1.00;;;;;;;18.68;58.77;93792.97;4895189;29;20032;-72
2021/05/13 15:34:27;;;;;;;2.83;0.88;;;;;;;18.96;56.30;93776.91;4880925;29;20490;-73
2021/05/13 15:36:52;;;;;;;43.33;35.03;;;;;;;19.14;55.13;93779.13;4880906;29;20047;-73
2021/05/13 15:39:18;;;;;;;2.35;1.23;;;;;;;19.15;52.54;93772.84;4878275;29;20075;-71
2021/05/13 15:41:45;;;;;;;4.20;2.53;;;;;;;18.94;50.88;93761.41;4879848;29;20443;-71
2021/05/13 15:44:10;;;;;;;2.08;0.63;;;;;;;18.74;52.65;93755.22;4878564;29;20025;-71
2021/05/13 15:46:36;;;;;;;0.57;0.50;;;;;;;18.86;51.99;93755.84;4895881;29;20101;-71
2021/05/13 15:49:02;;;;;;;1.60;0.70;;;;;;;18.80;52.90;93755.03;4891533;29;20035;-72
2021/05/13 15:51:27;;;;;;;2.95;1.17;;;;;;;18.52;53.06;93754.53;4894793;29;20043;-74
2021/05/13 15:53:53;;;;;;;2.70;0.65;;;;;;;18.44;54.69;93753.09;4880449;29;20028;-72
2021/05/13 15:56:18;;;;;;;2.65;1.00;;;;;;;18.14;55.74;93750.97;4878795;29;20032;-68
2021/05/13 15:58:44;;;;;;;1.40;0.98;;;;;;;18.11;55.53;93754.06;4880798;29;20111;-69
2021/05/13 16:01:09;;;;;;;1.25;0.75;;;;;;;17.67;56.27;93721.09;4877977;29;20100;-71
2021/05/13 16:03:35;;;;;;;2.65;0.80;;;;;;;17.93;56.79;93759.66;4895765;29;20043;-72
2021/05/13 16:06:00;;;;;;;2.33;1.00;;;;;;;17.77;56.76;93753.44;4894036;29;20040;-72
2021/05/13 16:08:26;;;;;;;2.33;1.27;;;;;;;17.73;57.50;93759.41;4880319;29;20038;-72
2021/05/13 16:13:27;;;;;;;2.65;1.13;;;;;;;17.84;57.93;93763.75;4880760;29;20043;-72
2021/05/13 16:15:52;;;;;;;2.92;1.20;;;;;;;17.54;58.13;93763.34;4881462;29;20036;-68
2021/05/13 16:18:18;;;;;;;2.90;0.93;;;;;;;17.45;59.08;93762.16;4894485;29;20028;-70
2021/05/13 16:20:43;;;;;;;3.58;1.05;;;;;;;17.51;58.43;93763.81;4880224;29;20478;-70
2021/05/13 16:23:09;;;;;;;2.53;1.00;;;;;;;17.64;60.34;93768.72;4893773;29;20549;-70
2021/05/13 16:25:35;;;;;;;2.97;0.93;;;;;;;17.62;58.55;93766.38;4880355;29;20449;-72
2021/05/13 16:28:00;;;;;;;3.30;1.00;;;;;;;17.39;60.90;93764.72;4878847;29;20064;-72
2021/05/13 16:30:26;;;;;;;2.50;1.00;;;;;;;17.36;59.17;93767.03;4879915;29;20029;-73
2021/05/13 16:32:51;;;;;;;2.35;0.93;;;;;;;17.35;59.91;93771.47;4879768;29;20046;-71